createdAt,value
2023-04-12T04:00:32.916Z,99827.50
2023-04-12T04:03:36.578Z,99827.50
2023-04-12T04:06:39.735Z,99824.78
2023-04-12T04:09:43.153Z,99822.19
2023-04-12T04:12:46.001Z,99821.28
2023-04-12T04:15:58.603Z,99817.63
2023-04-12T04:19:03.103Z,99814.16
2023-04-12T04:22:06.573Z,99800.97
2023-04-12T04:25:09.666Z,99807.59
2023-04-12T04:28:12.954Z,99807.22
2023-04-12T04:31:17.493Z,99808.16
2023-04-12T04:34:23.259Z,99807.25
2023-04-12T04:37:28.060Z,99813.03
2023-04-12T04:40:32.688Z,99818.41
2023-04-12T04:43:39.819Z,99814.16
2023-04-12T04:46:43.108Z,99818.19
2023-04-12T04:49:45.682Z,99812.47
2023-04-12T04:52:52.718Z,99814.00
2023-04-12T04:55:59.761Z,99818.78
2023-04-12T04:59:03.083Z,99811.31
2023-04-12T05:02:06.118Z,99814.38
2023-04-12T05:05:16.004Z,99808.88
2023-04-12T05:08:19.124Z,99811.25
2023-04-12T05:11:23.917Z,99812.38
2023-04-12T05:14:37.702Z,99808.59
2023-04-12T05:17:47.513Z,99799.62
2023-04-12T05:20:50.952Z,99795.34
2023-04-12T05:23:53.847Z,99796.47
2023-04-12T05:26:56.655Z,99793.59
2023-04-12T05:29:59.723Z,99784.12
2023-04-12T05:33:02.387Z,99788.84
2023-04-12T05:36:06.096Z,99780.13
2023-04-12T05:39:08.660Z,99782.84
2023-04-12T05:42:11.899Z,99784.78
2023-04-12T05:45:14.778Z,99787.19
2023-04-12T05:48:18.820Z,99793.34
2023-04-12T05:51:34.062Z,99797.81
2023-04-12T05:54:43.281Z,99799.78
2023-04-12T05:57:46.888Z,99789.16
2023-04-12T06:00:51.349Z,99797.78
2023-04-12T06:03:54.243Z,99803.19
2023-04-12T06:06:56.685Z,99818.22
2023-04-12T06:09:59.694Z,99821.94
2023-04-12T06:13:02.782Z,99832.66
2023-04-12T06:16:06.812Z,99835.28
2023-04-12T06:19:11.024Z,99834.44
2023-04-12T06:22:13.902Z,99832.06
2023-04-12T06:25:16.738Z,99824.31
2023-04-12T06:28:20.631Z,99819.44
2023-04-12T06:31:23.465Z,99819.94
2023-04-12T06:34:26.511Z,99815.66
2023-04-12T06:37:29.244Z,99820.84
2023-04-12T06:40:32.155Z,99825.34
2023-04-12T06:43:34.871Z,99826.91
2023-04-12T06:46:37.853Z,99829.94
2023-04-12T06:49:40.393Z,99831.81
2023-04-12T06:52:43.211Z,99831.00
2023-04-12T06:55:45.536Z,99829.03
2023-04-12T06:58:48.278Z,99817.75
2023-04-12T07:01:51.868Z,99833.41
2023-04-12T07:04:54.674Z,99825.81
2023-04-12T07:07:57.262Z,99823.41
2023-04-12T07:11:08.624Z,99827.84
2023-04-12T07:14:20.622Z,99824.03
2023-04-12T07:17:24.269Z,99832.19
2023-04-12T07:20:27.095Z,99832.47
2023-04-12T07:23:30.763Z,99825.59
2023-04-12T07:26:33.258Z,99816.72
2023-04-12T07:29:36.139Z,99815.28
2023-04-12T07:32:38.713Z,99821.03
2023-04-12T07:35:41.464Z,99818.25
2023-04-12T07:38:43.849Z,99819.06
2023-04-12T07:41:48.354Z,99821.50
2023-04-12T07:44:50.799Z,99822.06
2023-04-12T07:47:53.912Z,99821.81
2023-04-12T07:50:56.656Z,99819.09
2023-04-12T07:53:59.747Z,99832.34
2023-04-12T07:57:03.541Z,99816.38
2023-04-12T08:00:07.541Z,99808.84
2023-04-12T08:03:17.068Z,99820.75
2023-04-12T08:06:20.010Z,99827.91
2023-04-12T08:09:23.525Z,99828.47
2023-04-12T08:12:27.182Z,99816.59
2023-04-12T08:15:29.783Z,99835.56
2023-04-12T08:18:33.153Z,99821.03
2023-04-12T08:21:35.687Z,99816.44
2023-04-12T08:24:38.342Z,99835.56
2023-04-12T08:27:44.056Z,99833.69
2023-04-12T08:30:50.966Z,99830.41
2023-04-12T08:33:53.286Z,99836.00
2023-04-12T08:36:55.945Z,99832.38
2023-04-12T08:40:04.695Z,99828.75
2023-04-12T08:43:11.393Z,99824.50
2023-04-12T08:46:17.839Z,99819.66
2023-04-12T08:49:22.823Z,99820.69
2023-04-12T08:52:25.448Z,99820.56
2023-04-12T08:55:28.290Z,99804.47
2023-04-12T08:58:31.730Z,99809.75
2023-04-12T09:01:34.277Z,99812.44
2023-04-12T09:04:50.684Z,99819.00
2023-04-12T09:07:53.384Z,99810.00
2023-04-12T09:10:56.046Z,99816.22
2023-04-12T09:13:59.340Z,99805.28
2023-04-12T09:17:02.166Z,99804.94
2023-04-12T09:20:17.252Z,99796.69
2023-04-12T09:23:26.651Z,99807.41
2023-04-12T09:26:30.268Z,99804.16
2023-04-12T09:29:36.624Z,99788.72
2023-04-12T09:32:39.349Z,99804.91
2023-04-12T09:35:42.974Z,99781.50
2023-04-12T09:39:01.173Z,99790.75
2023-04-12T09:42:25.563Z,99777.31
2023-04-12T09:45:36.126Z,99781.53
2023-04-12T09:48:40.401Z,99773.03
2023-04-12T09:51:43.149Z,99765.75
2023-04-12T09:54:48.052Z,99773.47
2023-04-12T09:57:52.670Z,99770.38
2023-04-12T10:00:59.974Z,99769.91
2023-04-12T10:04:05.819Z,99753.19
2023-04-12T10:07:13.202Z,99765.09
2023-04-12T10:10:19.325Z,99755.47
2023-04-12T10:13:23.575Z,99762.44
2023-04-12T10:16:27.677Z,99755.13
2023-04-12T10:19:33.464Z,99759.81
2023-04-12T10:22:42.652Z,99766.78
2023-04-12T10:25:48.245Z,99753.62
2023-04-12T10:29:26.493Z,99753.91
2023-04-12T10:32:28.914Z,99747.03
2023-04-12T10:35:51.224Z,99749.50
2023-04-12T10:39:09.943Z,99755.91
2023-04-12T10:42:16.655Z,99735.75
2023-04-12T10:45:35.310Z,99731.75
2023-04-12T10:48:57.095Z,99732.03
2023-04-12T10:52:09.155Z,99731.19
2023-04-12T10:55:30.074Z,99725.88
2023-04-12T10:58:50.740Z,99721.94
2023-04-12T11:02:13.087Z,99726.87
2023-04-12T11:05:19.160Z,99727.16
2023-04-12T11:08:23.906Z,99726.44
2023-04-12T11:11:28.113Z,99717.41
2023-04-12T11:14:38.170Z,99710.19
2023-04-12T11:17:40.582Z,99715.62
2023-04-12T11:20:44.373Z,99699.62
2023-04-12T11:23:48.898Z,99708.84
2023-04-12T11:26:56.239Z,99704.22
2023-04-12T11:30:02.805Z,99694.13
2023-04-12T11:33:08.452Z,99700.38
2023-04-12T11:36:13.199Z,99703.22
2023-04-12T11:39:17.077Z,99701.16
2023-04-12T11:42:22.717Z,99689.53
2023-04-12T11:45:26.998Z,99685.84
2023-04-12T11:48:30.498Z,99689.56
2023-04-12T11:51:33.759Z,99687.75
2023-04-12T11:54:36.302Z,99691.81
2023-04-12T11:57:39.562Z,99687.38
2023-04-12T12:00:44.364Z,99680.16
2023-04-12T12:03:48.443Z,99674.66
2023-04-12T12:06:51.654Z,99674.03
2023-04-12T12:09:54.399Z,99664.28
2023-04-12T12:13:01.100Z,99659.44
2023-04-12T12:16:08.174Z,99662.25
2023-04-12T12:19:10.980Z,99654.19
2023-04-12T12:22:15.293Z,99648.72
2023-04-12T12:25:19.108Z,99652.84
2023-04-12T12:28:24.471Z,99661.69
2023-04-12T12:31:28.593Z,99647.56
2023-04-12T12:34:34.452Z,99634.91
2023-04-12T12:37:48.184Z,99640.59
2023-04-12T12:40:50.978Z,99619.22
2023-04-12T12:43:53.574Z,99627.78
2023-04-12T12:50:03.474Z,99615.19
2023-04-12T12:53:06.665Z,99613.00
2023-04-12T12:56:13.682Z,99613.37
2023-04-12T12:59:16.331Z,99623.94
2023-04-12T13:02:19.931Z,99619.50
2023-04-12T13:05:23.418Z,99617.03
2023-04-12T13:08:26.752Z,99618.94
2023-04-12T13:11:29.446Z,99608.19
2023-04-12T13:14:31.783Z,99608.25
2023-04-12T13:17:34.426Z,99600.78
2023-04-12T13:20:36.777Z,99604.94
2023-04-12T13:23:39.490Z,99605.75
2023-04-12T13:26:43.250Z,99590.47
2023-04-12T13:29:46.019Z,99589.91
2023-04-12T13:32:48.540Z,99592.53
2023-04-12T13:35:51.546Z,99592.06
2023-04-12T13:38:54.107Z,99585.19
2023-04-12T13:41:56.742Z,99584.22
2023-04-12T13:44:59.257Z,99572.34
2023-04-12T13:48:02.283Z,99574.03
2023-04-12T13:51:05.111Z,99575.84
2023-04-12T13:54:07.850Z,99581.28
2023-04-12T13:57:10.279Z,99569.97
2023-04-12T14:00:13.484Z,99570.75
2023-04-12T14:03:16.525Z,99567.16
2023-04-12T14:06:19.023Z,99572.88
2023-04-12T14:09:29.438Z,99570.81
2023-04-12T14:12:31.783Z,99563.53
2023-04-12T14:15:34.343Z,99561.16
2023-04-12T14:18:36.920Z,99570.38
2023-04-12T14:21:39.519Z,99564.81
2023-04-12T14:24:41.802Z,99554.13
2023-04-12T14:27:44.748Z,99551.19
2023-04-12T14:30:50.470Z,99552.34
2023-04-12T14:33:53.803Z,99550.34
2023-04-12T14:36:56.377Z,99556.88
2023-04-12T14:39:59.284Z,99558.03
2023-04-12T14:43:01.776Z,99558.94
2023-04-12T14:46:04.619Z,99559.56
2023-04-12T14:49:07.186Z,99552.94
2023-04-12T14:52:09.816Z,99543.78
2023-04-12T14:55:12.125Z,99546.31
2023-04-12T14:58:14.918Z,99546.09
2023-04-12T15:01:18.445Z,99550.34
2023-04-12T15:04:21.403Z,99546.78
2023-04-12T15:07:23.872Z,99547.38
2023-04-12T15:10:26.701Z,99553.25
2023-04-12T15:13:33.548Z,99544.94
2023-04-12T15:16:38.215Z,99550.16
2023-04-12T15:19:41.260Z,99547.28
2023-04-12T15:22:44.348Z,99552.47
2023-04-12T15:25:47.496Z,99546.84
2023-04-12T15:28:50.148Z,99544.94
2023-04-12T15:31:52.578Z,99549.19
2023-04-12T15:35:01.374Z,99544.84
2023-04-12T15:38:06.904Z,99554.28
2023-04-12T15:41:09.809Z,99556.63
2023-04-12T15:44:13.362Z,99557.94
2023-04-12T15:47:16.140Z,99557.44
2023-04-12T15:50:19.243Z,99554.28
2023-04-12T15:53:24.525Z,99539.62
2023-04-12T15:56:27.443Z,99545.25
2023-04-12T15:59:30.890Z,99558.56
2023-04-12T16:02:33.907Z,99552.66
2023-04-12T16:05:36.632Z,99559.41
2023-04-12T16:08:39.015Z,99549.53
2023-04-12T16:11:43.637Z,99546.41
2023-04-12T16:14:46.018Z,99556.38
2023-04-12T16:17:53.195Z,99548.81
2023-04-12T16:20:55.639Z,99539.84
2023-04-12T16:23:58.571Z,99541.16
2023-04-12T16:27:00.872Z,99527.03
2023-04-12T16:30:05.695Z,99532.53
2023-04-12T16:33:09.627Z,99530.97
2023-04-12T16:36:12.348Z,99527.22
2023-04-12T16:39:14.733Z,99525.53
2023-04-12T16:42:17.386Z,99527.22
2023-04-12T16:45:21.600Z,99526.16
2023-04-12T16:48:25.195Z,99522.84
2023-04-12T16:51:37.060Z,99516.84
2023-04-12T16:54:40.195Z,99518.13
2023-04-12T16:57:44.166Z,99530.72
2023-04-12T17:00:46.891Z,99523.94
2023-04-12T17:03:49.508Z,99536.97
2023-04-12T17:06:52.370Z,99538.06
2023-04-12T17:09:55.959Z,99527.09
2023-04-12T17:12:59.610Z,99524.91
2023-04-12T17:16:03.953Z,99530.69
2023-04-12T17:19:09.213Z,99531.50
2023-04-12T17:22:12.940Z,99530.69
2023-04-12T17:25:18.213Z,99533.03
2023-04-12T17:28:22.432Z,99534.50
2023-04-12T17:31:27.063Z,99540.62
2023-04-12T17:34:29.507Z,99532.91
2023-04-12T17:37:33.873Z,99529.44
2023-04-12T17:40:38.341Z,99527.63
2023-04-12T17:43:41.084Z,99526.06
2023-04-12T17:46:44.241Z,99519.00
2023-04-12T17:49:47.013Z,99524.84
2023-04-12T17:52:49.489Z,99529.31
2023-04-12T17:55:52.281Z,99529.25
2023-04-12T17:58:55.200Z,99530.03
2023-04-12T18:01:59.971Z,99534.53
2023-04-12T18:05:04.715Z,99524.91
2023-04-12T18:08:07.292Z,99540.19
2023-04-12T18:11:10.964Z,99542.44
2023-04-12T18:14:13.630Z,99542.09
2023-04-12T18:17:16.238Z,99537.09
2023-04-12T18:20:18.868Z,99532.16
2023-04-12T18:23:22.032Z,99528.16
2023-04-12T18:26:24.975Z,99530.28
2023-04-12T18:29:27.659Z,99530.69
2023-04-12T18:32:30.500Z,99539.13
2023-04-12T18:35:33.294Z,99535.34
2023-04-12T18:38:36.420Z,99537.41
2023-04-12T18:41:40.983Z,99545.78
2023-04-12T18:44:44.823Z,99546.06
2023-04-12T18:47:47.753Z,99546.28
2023-04-12T18:50:50.474Z,99546.88
2023-04-12T18:53:53.540Z,99542.00
2023-04-12T18:57:00.662Z,99559.84
2023-04-12T19:00:09.996Z,99555.62
2023-04-12T19:03:12.594Z,99560.84
2023-04-12T19:06:15.848Z,99559.53
2023-04-12T19:09:18.299Z,99567.72
2023-04-12T19:12:21.516Z,99559.19
2023-04-12T19:15:24.104Z,99556.94
2023-04-12T19:18:30.107Z,99565.03
2023-04-12T19:21:34.160Z,99564.97
2023-04-12T19:24:37.635Z,99563.19
2023-04-12T19:27:40.284Z,99564.31
2023-04-12T19:30:43.711Z,99559.31
2023-04-12T19:33:46.499Z,99563.97
2023-04-12T19:36:49.718Z,99564.41
2023-04-12T19:39:52.561Z,99559.50
2023-04-12T19:42:55.748Z,99568.63
2023-04-12T19:45:58.314Z,99560.88
2023-04-12T19:49:01.157Z,99558.50
2023-04-12T19:52:07.518Z,99556.00
2023-04-12T19:55:11.352Z,99564.19
2023-04-12T19:58:13.998Z,99554.06
2023-04-12T20:01:16.792Z,99552.37
2023-04-12T20:04:21.652Z,99549.25
2023-04-12T20:07:24.341Z,99545.03
2023-04-12T20:10:27.304Z,99543.94
2023-04-12T20:13:30.832Z,99546.03
2023-04-12T20:16:38.302Z,99549.00
2023-04-12T20:19:40.697Z,99548.38
2023-04-12T20:22:45.861Z,99540.88
2023-04-12T20:25:49.742Z,99532.09
2023-04-12T20:28:52.387Z,99536.66
2023-04-12T20:31:55.651Z,99533.38
2023-04-12T20:34:59.017Z,99527.81
2023-04-12T20:38:01.471Z,99536.63
2023-04-12T20:41:05.213Z,99543.03
2023-04-12T20:44:07.563Z,99543.09
2023-04-12T20:47:10.555Z,99546.81
2023-04-12T20:50:13.045Z,99538.19
2023-04-12T20:53:17.480Z,99528.19
2023-04-12T20:56:19.971Z,99530.88
2023-04-12T20:59:30.298Z,99525.19
2023-04-12T21:02:33.173Z,99524.53
2023-04-12T21:05:35.921Z,99510.94
2023-04-12T21:08:39.188Z,99510.84
2023-04-12T21:11:42.539Z,99510.09
2023-04-12T21:14:49.960Z,99514.63
2023-04-12T21:17:52.692Z,99512.00
2023-04-12T21:20:59.250Z,99513.34
2023-04-12T21:24:03.834Z,99517.00
2023-04-12T21:27:10.032Z,99526.69
2023-04-12T21:30:13.780Z,99518.25
2023-04-12T21:33:24.514Z,99521.78
2023-04-12T21:36:28.602Z,99515.63
2023-04-12T21:39:32.434Z,99511.22
2023-04-12T21:42:37.160Z,99511.66
2023-04-12T21:45:39.641Z,99516.88
2023-04-12T21:48:42.840Z,99506.88
2023-04-12T21:51:49.203Z,99497.69
2023-04-12T21:54:52.274Z,99501.97
2023-04-12T21:57:54.614Z,99493.31
2023-04-12T22:00:58.261Z,99484.88
2023-04-12T22:04:01.504Z,99480.63
2023-04-12T22:07:03.998Z,99491.25
2023-04-12T22:10:12.034Z,99480.56
2023-04-12T22:13:15.753Z,99477.81
2023-04-12T22:16:18.400Z,99475.06
2023-04-12T22:19:21.166Z,99472.44
2023-04-12T22:22:25.182Z,99479.41
2023-04-12T22:25:29.459Z,99477.59
2023-04-12T22:28:32.250Z,99469.69
2023-04-12T22:31:34.836Z,99469.28
2023-04-12T22:34:37.451Z,99475.59
2023-04-12T22:37:41.208Z,99464.22
2023-04-12T22:40:46.891Z,99470.38
2023-04-12T22:43:49.934Z,99463.66
2023-04-12T22:46:56.910Z,99467.69
2023-04-12T22:50:01.716Z,99459.09
2023-04-12T22:53:04.669Z,99460.63
2023-04-12T22:56:11.198Z,99463.84
2023-04-12T22:59:18.678Z,99464.44
2023-04-12T23:02:21.361Z,99473.38
2023-04-12T23:05:25.073Z,99466.06
2023-04-12T23:08:29.047Z,99462.28
2023-04-12T23:11:36.155Z,99459.28
2023-04-12T23:14:38.621Z,99468.66
2023-04-12T23:17:41.924Z,99469.25
2023-04-12T23:20:44.846Z,99461.25
2023-04-12T23:23:48.443Z,99461.25
2023-04-12T23:26:50.877Z,99452.19
2023-04-12T23:29:53.641Z,99457.00
2023-04-12T23:32:58.279Z,99455.59
2023-04-12T23:36:05.476Z,99453.72
2023-04-12T23:39:09.457Z,99450.13
2023-04-12T23:42:12.326Z,99442.69
2023-04-12T23:45:14.876Z,99443.53
2023-04-12T23:48:18.213Z,99441.19
2023-04-12T23:51:22.004Z,99430.75
2023-04-12T23:54:24.765Z,99427.19
2023-04-12T23:57:27.281Z,99424.41
